Time;durP1;ratioP1;P1;durP2;ratioP2;P2;SDS_P1;SDS_P2;PMS_P1;PMS_P2;Temp;Humidity;BMP_temperature;BMP_pressure;BME280_temperature;BME280_humidity;BME280_pressure;Samples;Min_cycle;Max_cycle;Signal;HPM_P1;HPM_P2
2021/10/13 00:02:09;;;;;;;2.78;0.50;;;;;;;;;;4950275;28;20031;-55
2021/10/13 00:04:35;;;;;;;5.43;0.60;;;;;;;;;;4950078;28;20400;-53
2021/10/13 00:07:01;;;;;;;1.83;0.60;;;;;;;;;;4952007;28;20043;-53
2021/10/13 00:09:27;;;;;;;1.90;0.50;;;;;;;;;;4958149;28;20047;-54
2021/10/13 00:11:53;;;;;;;2.35;0.63;;;;;;;;;;4953467;28;20512;-54
2021/10/13 00:14:18;;;;;;;1.42;0.40;;;;;;;;;;4952887;28;20039;-54
2021/10/13 00:16:52;;;;;;;1.33;0.50;;;;;;;;;;4954484;28;20081;-52
2021/10/13 00:19:19;;;;;;;1.58;0.50;;;;;;;;;;4953097;28;20485;-56
2021/10/13 00:21:44;;;;;;;0.88;0.40;;;;;;;;;;4952626;28;20035;-55
2021/10/13 00:24:10;;;;;;;0.82;0.40;;;;;;;;;;4954325;28;20133;-56
2021/10/13 00:26:36;;;;;;;3.40;1.00;;;;;;;;;;4952936;28;20027;-56
2021/10/13 00:29:02;;;;;;;4.28;1.20;;;;;;;;;;4954717;28;20049;-54
2021/10/13 00:31:28;;;;;;;2.83;0.80;;;;;;;;;;4952719;28;20074;-55
2021/10/13 00:33:54;;;;;;;2.85;0.63;;;;;;;;;;4968500;28;20193;-53
2021/10/13 00:36:20;;;;;;;1.85;0.60;;;;;;;;;;4968107;28;20059;-54
2021/10/13 00:38:46;;;;;;;2.60;0.77;;;;;;;;;;4955133;28;20047;-52
2021/10/13 00:41:12;;;;;;;8.25;1.60;;;;;;;;;;4955921;28;20145;-53
2021/10/13 00:43:38;;;;;;;3.40;0.60;;;;;;;;;;4953325;28;20053;-54
2021/10/13 00:46:03;;;;;;;2.10;0.60;;;;;;;;;;4955335;28;20464;-55
2021/10/13 00:48:29;;;;;;;6.43;1.63;;;;;;;;;;4964824;28;20073;-55
2021/10/13 00:50:58;;;;;;;5.32;0.70;;;;;;;;;;4966511;28;20039;-54
2021/10/13 00:53:24;;;;;;;2.30;0.68;;;;;;;;;;4952801;28;20047;-52
2021/10/13 00:55:52;;;;;;;2.35;0.70;;;;;;;;;;4951441;28;20039;-55
2021/10/13 00:58:18;;;;;;;4.20;0.98;;;;;;;;;;4953156;28;20945;-54
2021/10/13 01:00:44;;;;;;;4.22;0.80;;;;;;;;;;4952315;28;20054;-55
2021/10/13 01:03:16;;;;;;;6.35;1.48;;;;;;;;;;4952930;28;20586;-53
2021/10/13 01:05:50;;;;;;;3.55;1.20;;;;;;;;;;4951755;28;20081;-55
2021/10/13 01:08:41;;;;;;;4.05;1.00;;;;;;;;;;4953626;28;20133;-52
2021/10/13 01:11:10;;;;;;;2.13;0.63;;;;;;;;;;4971348;28;20035;-52
2021/10/13 01:13:36;;;;;;;5.28;0.80;;;;;;;;;;4960052;28;20453;-53
2021/10/13 01:16:07;;;;;;;4.35;0.73;;;;;;;;;;4951922;28;20057;-55
2021/10/13 01:18:52;;;;;;;1.88;0.57;;;;;;;;;;4951699;28;20050;-54
2021/10/13 01:21:30;;;;;;;2.08;0.70;;;;;;;;;;4952768;28;20035;-52
2021/10/13 01:24:13;;;;;;;6.57;0.95;;;;;;;;;;4951714;28;20403;-54
2021/10/13 01:27:08;;;;;;;1.85;0.70;;;;;;;;;;4953243;28;20042;-54
2021/10/13 01:29:37;;;;;;;3.60;0.68;;;;;;;;;;4957034;28;20090;-54
2021/10/13 01:32:11;;;;;;;2.60;0.90;;;;;;;;;;4954999;28;20065;-53
2021/10/13 01:34:40;;;;;;;4.28;0.90;;;;;;;;;;4969294;28;20079;-52
2021/10/13 01:37:20;;;;;;;4.32;1.90;;;;;;;;;;4972832;28;20197;-55
2021/10/13 01:39:49;;;;;;;5.93;0.93;;;;;;;;;;4960621;28;20109;-52
2021/10/13 01:42:16;;;;;;;2.60;0.90;;;;;;;;;;4960408;28;20108;-55
2021/10/13 01:44:46;;;;;;;3.95;0.68;;;;;;;;;;4955739;28;20043;-55
2021/10/13 01:47:14;;;;;;;2.40;0.85;;;;;;;;;;4956203;28;20050;-53
2021/10/13 01:49:40;;;;;;;2.08;0.70;;;;;;;;;;4950074;28;20066;-52
2021/10/13 01:52:06;;;;;;;2.42;0.70;;;;;;;;;;4952246;28;20047;-54
2021/10/13 01:54:35;;;;;;;2.00;0.75;;;;;;;;;;4951176;28;20028;-52
2021/10/13 01:57:02;;;;;;;2.72;0.70;;;;;;;;;;4967182;28;20097;-55
2021/10/13 01:59:28;;;;;;;6.70;1.10;;;;;;;;;;4950556;28;20047;-56
2021/10/13 02:01:55;;;;;;;4.55;0.80;;;;;;;;;;4953210;28;20043;-56
2021/10/13 02:04:21;;;;;;;2.45;0.75;;;;;;;;;;4951513;28;20058;-53
2021/10/13 02:06:48;;;;;;;1.65;0.60;;;;;;;;;;4951985;28;20039;-55
2021/10/13 02:09:17;;;;;;;3.05;0.80;;;;;;;;;;4952374;28;20058;-53
2021/10/13 02:11:45;;;;;;;2.88;0.90;;;;;;;;;;4970834;28;20047;-52
2021/10/13 02:14:12;;;;;;;3.53;0.88;;;;;;;;;;4955424;28;20066;-53
2021/10/13 02:16:39;;;;;;;3.15;1.00;;;;;;;;;;4951137;28;20075;-54
2021/10/13 02:19:07;;;;;;;2.53;0.90;;;;;;;;;;4951779;28;20038;-54
2021/10/13 02:21:35;;;;;;;3.72;0.90;;;;;;;;;;4949857;28;20049;-54
2021/10/13 02:24:01;;;;;;;2.30;0.77;;;;;;;;;;4949972;28;20772;-54
2021/10/13 02:26:37;;;;;;;2.92;0.82;;;;;;;;;;4965904;28;20377;-55
2021/10/13 02:29:05;;;;;;;2.92;1.00;;;;;;;;;;4950538;28;21125;-53
2021/10/13 02:31:32;;;;;;;6.03;1.10;;;;;;;;;;4950354;28;20074;-55
2021/10/13 02:33:57;;;;;;;4.78;1.00;;;;;;;;;;4967307;28;20047;-52
2021/10/13 02:36:24;;;;;;;4.05;0.60;;;;;;;;;;4953570;28;20113;-54
2021/10/13 02:38:50;;;;;;;5.55;0.90;;;;;;;;;;4973016;28;20685;-52
2021/10/13 02:41:15;;;;;;;2.30;0.70;;;;;;;;;;4958209;28;20126;-55
2021/10/13 02:43:41;;;;;;;7.45;0.98;;;;;;;;;;4950469;28;20132;-55
2021/10/13 02:46:27;;;;;;;1.52;0.55;;;;;;;;;;4951106;28;20121;-55
2021/10/13 02:49:06;;;;;;;2.75;0.70;;;;;;;;;;4955848;28;20047;-53
2021/10/13 02:51:41;;;;;;;2.80;0.90;;;;;;;;;;4950034;28;20054;-53
2021/10/13 02:54:14;;;;;;;2.25;0.68;;;;;;;;;;4952430;28;20105;-55
2021/10/13 02:56:44;;;;;;;2.67;0.70;;;;;;;;;;4951521;28;20046;-54
2021/10/13 02:59:12;;;;;;;6.97;0.80;;;;;;;;;;4950623;28;20154;-55
2021/10/13 03:01:42;;;;;;;5.55;0.70;;;;;;;;;;4951040;28;20495;-55
2021/10/13 03:04:16;;;;;;;2.00;0.68;;;;;;;;;;4950039;28;20130;-54
2021/10/13 03:06:49;;;;;;;1.95;0.70;;;;;;;;;;4949358;28;20069;-54
2021/10/13 03:09:17;;;;;;;2.17;0.73;;;;;;;;;;4949897;28;20463;-55
2021/10/13 03:11:43;;;;;;;3.65;0.50;;;;;;;;;;4970520;28;20049;-55
2021/10/13 03:14:09;;;;;;;1.73;0.50;;;;;;;;;;4955578;28;20035;-55
2021/10/13 03:16:38;;;;;;;2.00;0.60;;;;;;;;;;4949418;28;20141;-55
2021/10/13 03:19:04;;;;;;;4.60;0.63;;;;;;;;;;4952121;28;20053;-53
2021/10/13 03:21:31;;;;;;;2.90;1.10;;;;;;;;;;4951269;28;20096;-55
2021/10/13 03:23:57;;;;;;;2.28;0.77;;;;;;;;;;4951938;28;20129;-55
2021/10/13 03:26:23;;;;;;;4.53;0.85;;;;;;;;;;4949319;28;20778;-55
2021/10/13 03:28:48;;;;;;;2.50;0.90;;;;;;;;;;4962455;28;20031;-53
2021/10/13 03:31:14;;;;;;;6.10;0.82;;;;;;;;;;4970635;28;20129;-54
2021/10/13 03:33:40;;;;;;;3.10;0.70;;;;;;;;;;4969207;28;20523;-54
2021/10/13 03:36:07;;;;;;;3.03;0.90;;;;;;;;;;4984469;28;20082;-53
2021/10/13 03:38:33;;;;;;;3.83;0.80;;;;;;;;;;4969188;28;20143;-54
2021/10/13 03:40:59;;;;;;;5.75;0.93;;;;;;;;;;4970120;28;20120;-53
2021/10/13 03:43:24;;;;;;;2.47;0.77;;;;;;;;;;4967802;28;20444;-54
2021/10/13 03:45:50;;;;;;;3.35;1.00;;;;;;;;;;4967703;28;20053;-55
2021/10/13 03:48:17;;;;;;;2.70;0.80;;;;;;;;;;4968377;28;20043;-52
2021/10/13 03:50:42;;;;;;;3.22;0.80;;;;;;;;;;4957951;28;20047;-52
2021/10/13 03:53:08;;;;;;;2.65;0.75;;;;;;;;;;4950629;28;20042;-55
2021/10/13 03:55:34;;;;;;;2.40;0.73;;;;;;;;;;4949622;28;20647;-54
2021/10/13 03:58:00;;;;;;;2.67;0.82;;;;;;;;;;4952108;28;20548;-52
2021/10/13 04:00:27;;;;;;;2.03;0.70;;;;;;;;;;4950170;28;20089;-54
2021/10/13 04:02:53;;;;;;;3.00;0.70;;;;;;;;;;4948658;28;20047;-54
2021/10/13 04:05:19;;;;;;;7.97;1.13;;;;;;;;;;4948543;28;20051;-53
2021/10/13 04:07:44;;;;;;;3.50;1.00;;;;;;;;;;4950877;28;20039;-54
2021/10/13 04:10:12;;;;;;;3.33;1.15;;;;;;;;;;4951122;28;20050;-54
2021/10/13 04:12:38;;;;;;;3.05;0.90;;;;;;;;;;4948616;28;20047;-54
2021/10/13 04:15:07;;;;;;;2.88;0.82;;;;;;;;;;4948308;28;20050;-54
2021/10/13 04:17:34;;;;;;;2.30;0.73;;;;;;;;;;4949063;28;20049;-54
2021/10/13 04:20:00;;;;;;;3.65;0.98;;;;;;;;;;4948565;28;20126;-51
2021/10/13 04:22:26;;;;;;;2.88;0.98;;;;;;;;;;4948190;28;20043;-55
2021/10/13 04:24:52;;;;;;;2.45;0.90;;;;;;;;;;4948311;28;20453;-52
2021/10/13 04:27:18;;;;;;;2.80;0.95;;;;;;;;;;4947153;28;20532;-53
2021/10/13 04:29:44;;;;;;;4.78;1.02;;;;;;;;;;4947406;28;20181;-54
2021/10/13 04:32:09;;;;;;;3.00;1.10;;;;;;;;;;4949482;28;20038;-53
2021/10/13 04:34:35;;;;;;;2.45;0.80;;;;;;;;;;4946930;28;20043;-55
2021/10/13 04:37:01;;;;;;;5.28;1.10;;;;;;;;;;4947762;28;20154;-51
2021/10/13 04:39:27;;;;;;;4.22;1.45;;;;;;;;;;4949008;28;20074;-51
2021/10/13 04:41:53;;;;;;;3.40;1.02;;;;;;;;;;4948699;28;20043;-54
2021/10/13 04:44:19;;;;;;;3.58;0.93;;;;;;;;;;4946170;28;20047;-52
2021/10/13 04:46:45;;;;;;;4.10;1.05;;;;;;;;;;4949926;28;20316;-54
2021/10/13 04:49:10;;;;;;;4.00;1.10;;;;;;;;;;4964799;28;20563;-52
2021/10/13 04:51:36;;;;;;;3.47;0.80;;;;;;;;;;4948652;28;20039;-51
2021/10/13 04:54:02;;;;;;;3.20;0.80;;;;;;;;;;4948554;28;20123;-53
2021/10/13 04:56:28;;;;;;;2.88;0.93;;;;;;;;;;4948544;28;20059;-52
2021/10/13 04:58:57;;;;;;;3.10;0.80;;;;;;;;;;4954533;28;20043;-54
2021/10/13 05:01:22;;;;;;;4.32;1.20;;;;;;;;;;4954870;28;20038;-52
2021/10/13 05:03:48;;;;;;;4.47;0.80;;;;;;;;;;4957464;28;20050;-53
2021/10/13 05:06:14;;;;;;;4.03;0.90;;;;;;;;;;4953616;28;20123;-53
2021/10/13 05:08:40;;;;;;;2.25;0.75;;;;;;;;;;4961682;28;21084;-54
2021/10/13 05:11:06;;;;;;;3.50;0.95;;;;;;;;;;4951779;28;20050;-51
2021/10/13 05:13:32;;;;;;;2.60;0.90;;;;;;;;;;4950659;28;20079;-54
2021/10/13 05:15:57;;;;;;;3.65;1.13;;;;;;;;;;4952206;28;20069;-54
2021/10/13 05:18:23;;;;;;;3.78;1.20;;;;;;;;;;4953396;28;20043;-54
2021/10/13 05:20:49;;;;;;;6.75;1.25;;;;;;;;;;4951543;28;20222;-53
2021/10/13 05:23:15;;;;;;;2.30;0.73;;;;;;;;;;4952992;28;20038;-53
2021/10/13 05:25:42;;;;;;;3.90;1.30;;;;;;;;;;4948865;28;20466;-52
2021/10/13 05:28:08;;;;;;;3.58;1.10;;;;;;;;;;4954708;28;20043;-52
2021/10/13 05:30:34;;;;;;;3.97;1.10;;;;;;;;;;4960416;28;20530;-50
2021/10/13 05:33:00;;;;;;;2.45;0.80;;;;;;;;;;4953977;28;20057;-51
2021/10/13 05:35:26;;;;;;;2.60;1.00;;;;;;;;;;4952255;28;20082;-51
2021/10/13 05:37:51;;;;;;;3.47;0.82;;;;;;;;;;4950776;28;20035;-52
2021/10/13 05:40:17;;;;;;;2.80;1.00;;;;;;;;;;4955078;28;20093;-52
2021/10/13 05:42:43;;;;;;;3.33;1.10;;;;;;;;;;4954592;28;20042;-51
2021/10/13 05:45:09;;;;;;;6.20;0.95;;;;;;;;;;4953034;28;20958;-53
2021/10/13 05:47:35;;;;;;;2.55;0.90;;;;;;;;;;4953885;28;20224;-54
2021/10/13 05:50:01;;;;;;;4.88;0.88;;;;;;;;;;4951925;28;20050;-52
2021/10/13 05:52:26;;;;;;;5.03;0.82;;;;;;;;;;4952509;28;20043;-52
2021/10/13 05:54:52;;;;;;;2.65;0.85;;;;;;;;;;4952334;28;20043;-53
2021/10/13 05:57:18;;;;;;;5.55;0.95;;;;;;;;;;4952085;28;20062;-54
2021/10/13 05:59:47;;;;;;;3.85;1.17;;;;;;;;;;4951181;28;20046;-50
2021/10/13 06:02:13;;;;;;;7.40;1.23;;;;;;;;;;4951115;28;20497;-50
2021/10/13 06:04:39;;;;;;;2.58;0.80;;;;;;;;;;4952813;28;20051;-53
2021/10/13 06:07:05;;;;;;;3.05;1.05;;;;;;;;;;4955409;28;20507;-51
2021/10/13 06:09:31;;;;;;;3.55;0.98;;;;;;;;;;4951056;28;20064;-52
2021/10/13 06:11:57;;;;;;;6.88;1.10;;;;;;;;;;4952635;28;20117;-52
2021/10/13 06:14:23;;;;;;;9.93;1.00;;;;;;;;;;4951140;28;20034;-53
2021/10/13 06:16:48;;;;;;;8.40;1.25;;;;;;;;;;4952258;28;20110;-51
2021/10/13 06:19:14;;;;;;;2.00;0.75;;;;;;;;;;4951597;28;20035;-52
2021/10/13 06:21:40;;;;;;;3.65;1.23;;;;;;;;;;4951651;28;20061;-51
2021/10/13 06:24:06;;;;;;;3.42;0.93;;;;;;;;;;4950295;28;20939;-51
2021/10/13 06:26:32;;;;;;;3.28;1.00;;;;;;;;;;4950264;28;20042;-52
2021/10/13 06:28:58;;;;;;;6.93;0.93;;;;;;;;;;4952073;28;20038;-53
2021/10/13 06:31:24;;;;;;;2.05;0.70;;;;;;;;;;4952427;28;20044;-52
2021/10/13 06:33:50;;;;;;;2.88;0.80;;;;;;;;;;4952486;28;20583;-51
2021/10/13 06:36:16;;;;;;;3.30;0.95;;;;;;;;;;4952483;28;20054;-52
2021/10/13 06:38:42;;;;;;;2.80;0.90;;;;;;;;;;4951048;28;20035;-52
2021/10/13 06:41:09;;;;;;;2.92;0.88;;;;;;;;;;4952113;28;20030;-50
2021/10/13 06:43:36;;;;;;;2.95;0.90;;;;;;;;;;4949349;28;20167;-50
2021/10/13 06:46:02;;;;;;;2.78;0.98;;;;;;;;;;4952195;28;20039;-52
2021/10/13 06:48:28;;;;;;;4.72;1.10;;;;;;;;;;4950122;28;20497;-51
2021/10/13 06:50:54;;;;;;;3.85;1.25;;;;;;;;;;4952024;28;20046;-51
2021/10/13 06:53:20;;;;;;;2.70;1.10;;;;;;;;;;4965891;28;20045;-52
2021/10/13 06:55:46;;;;;;;2.55;0.75;;;;;;;;;;4952932;28;20425;-54
2021/10/13 06:58:12;;;;;;;2.70;0.80;;;;;;;;;;4950988;28;20031;-54
2021/10/13 07:00:38;;;;;;;8.48;1.35;;;;;;;;;;4964684;28;20042;-51
2021/10/13 07:03:04;;;;;;;3.08;1.10;;;;;;;;;;4951686;28;20050;-52
2021/10/13 07:05:30;;;;;;;4.60;0.90;;;;;;;;;;4950358;28;20039;-51
2021/10/13 07:07:55;;;;;;;5.75;1.27;;;;;;;;;;4951048;28;20047;-54
2021/10/13 07:10:21;;;;;;;4.68;1.50;;;;;;;;;;4949874;28;20145;-53
2021/10/13 07:12:47;;;;;;;6.00;0.90;;;;;;;;;;4953228;28;20055;-53
2021/10/13 07:15:13;;;;;;;3.95;1.27;;;;;;;;;;4951414;28;20093;-50
2021/10/13 07:17:39;;;;;;;2.45;0.90;;;;;;;;;;4949639;28;20054;-50
2021/10/13 07:20:06;;;;;;;4.10;1.35;;;;;;;;;;4951067;28;20050;-52
2021/10/13 07:22:33;;;;;;;3.95;1.30;;;;;;;;;;4950611;28;20047;-52
2021/10/13 07:24:59;;;;;;;4.05;1.10;;;;;;;;;;4949921;28;20780;-50
2021/10/13 07:27:26;;;;;;;11.50;1.40;;;;;;;;;;4951483;28;20070;-50
2021/10/13 07:30:00;;;;;;;11.60;1.17;;;;;;;;;;4950925;28;20039;-51
2021/10/13 07:32:27;;;;;;;3.25;1.23;;;;;;;;;;4944647;28;20050;-52
2021/10/13 07:34:53;;;;;;;4.85;1.30;;;;;;;;;;4964456;28;20062;-53
2021/10/13 07:37:19;;;;;;;5.60;1.17;;;;;;;;;;4949696;28;20142;-52
2021/10/13 07:39:45;;;;;;;4.18;1.30;;;;;;;;;;4949934;28;20046;-51
2021/10/13 07:42:11;;;;;;;3.60;1.17;;;;;;;;;;4950859;28;20065;-52
2021/10/13 07:44:37;;;;;;;4.60;0.80;;;;;;;;;;4949243;28;20038;-53
2021/10/13 07:47:03;;;;;;;2.80;1.02;;;;;;;;;;4951005;28;20046;-53
2021/10/13 07:49:29;;;;;;;6.50;1.05;;;;;;;;;;4951718;28;20039;-54
2021/10/13 07:51:55;;;;;;;2.33;0.85;;;;;;;;;;4951263;28;20109;-54
2021/10/13 07:54:21;;;;;;;4.07;1.20;;;;;;;;;;4950800;28;20116;-52
2021/10/13 07:56:47;;;;;;;3.30;1.05;;;;;;;;;;4950809;28;20066;-53
2021/10/13 07:59:13;;;;;;;4.47;1.23;;;;;;;;;;4949369;28;20042;-54
2021/10/13 08:01:40;;;;;;;3.47;1.10;;;;;;;;;;4949724;28;20468;-54
2021/10/13 08:04:06;;;;;;;3.33;0.95;;;;;;;;;;4948576;28;20042;-51
2021/10/13 08:06:32;;;;;;;3.17;0.90;;;;;;;;;;4950165;28;20103;-51
2021/10/13 08:08:57;;;;;;;2.70;1.00;;;;;;;;;;4948884;28;21857;-51
2021/10/13 08:11:23;;;;;;;5.97;1.00;;;;;;;;;;4951267;28;20157;-52
2021/10/13 08:13:49;;;;;;;4.30;1.23;;;;;;;;;;4950188;28;20086;-51
2021/10/13 08:16:15;;;;;;;2.75;1.05;;;;;;;;;;4952156;28;20512;-53
2021/10/13 08:18:41;;;;;;;3.72;0.90;;;;;;;;;;4949830;28;20169;-51
2021/10/13 08:21:07;;;;;;;5.13;1.17;;;;;;;;;;4951263;28;20074;-50
2021/10/13 08:23:33;;;;;;;3.25;1.15;;;;;;;;;;4949952;28;20385;-54
2021/10/13 08:26:00;;;;;;;3.13;1.15;;;;;;;;;;4949591;28;20038;-51
2021/10/13 08:28:26;;;;;;;3.85;0.90;;;;;;;;;;4951378;28;20042;-54
2021/10/13 08:30:53;;;;;;;3.28;0.98;;;;;;;;;;4949989;28;20035;-53
2021/10/13 08:33:19;;;;;;;2.85;0.95;;;;;;;;;;4953582;28;20505;-53
2021/10/13 08:35:45;;;;;;;3.35;1.20;;;;;;;;;;4955182;28;20138;-51
2021/10/13 08:38:11;;;;;;;3.30;1.20;;;;;;;;;;4954485;28;20034;-51
2021/10/13 08:40:37;;;;;;;6.13;1.10;;;;;;;;;;4955071;28;20043;-53
2021/10/13 08:43:03;;;;;;;3.03;1.13;;;;;;;;;;4954143;28;20046;-52
2021/10/13 08:45:30;;;;;;;3.17;1.00;;;;;;;;;;4954084;28;20046;-51
2021/10/13 08:47:56;;;;;;;2.65;0.80;;;;;;;;;;4963963;28;20078;-51
2021/10/13 08:50:22;;;;;;;3.00;1.17;;;;;;;;;;4959558;28;20078;-53
2021/10/13 08:52:50;;;;;;;4.53;1.27;;;;;;;;;;4958608;28;20039;-54
2021/10/13 08:55:17;;;;;;;5.18;1.35;;;;;;;;;;4953898;28;20113;-51
2021/10/13 08:57:42;;;;;;;3.50;1.10;;;;;;;;;;4952603;28;20075;-50
2021/10/13 09:00:08;;;;;;;4.45;1.33;;;;;;;;;;4952948;28;20551;-51
2021/10/13 09:02:39;;;;;;;3.67;0.93;;;;;;;;;;4952942;28;20058;-52
2021/10/13 09:05:10;;;;;;;4.97;1.60;;;;;;;;;;4952055;28;20039;-51
2021/10/13 09:07:36;;;;;;;2.63;1.00;;;;;;;;;;4952034;28;20043;-51
2021/10/13 09:10:03;;;;;;;7.65;1.55;;;;;;;;;;4967673;28;20050;-54
2021/10/13 09:12:36;;;;;;;10.35;1.48;;;;;;;;;;4951597;28;20086;-52
2021/10/13 09:15:10;;;;;;;3.92;1.40;;;;;;;;;;4953356;28;20079;-52
2021/10/13 09:17:49;;;;;;;6.15;1.00;;;;;;;;;;4951665;28;20049;-51
2021/10/13 09:20:18;;;;;;;3.88;1.20;;;;;;;;;;4953300;28;20039;-52
2021/10/13 09:22:57;;;;;;;2.70;1.10;;;;;;;;;;4971021;28;20046;-52
2021/10/13 09:25:23;;;;;;;5.53;1.75;;;;;;;;;;4971402;28;20046;-52
2021/10/13 09:27:49;;;;;;;4.40;1.58;;;;;;;;;;4972192;28;20081;-51
2021/10/13 09:30:15;;;;;;;5.57;1.10;;;;;;;;;;4971900;28;20035;-50
2021/10/13 09:32:42;;;;;;;11.38;1.63;;;;;;;;;;4974169;28;20045;-52
2021/10/13 09:35:08;;;;;;;6.90;1.80;;;;;;;;;;4974840;28;20038;-50
2021/10/13 09:37:44;;;;;;;4.57;1.55;;;;;;;;;;4969838;28;20789;-52
2021/10/13 09:40:10;;;;;;;5.00;1.77;;;;;;;;;;4953470;28;20486;-51
2021/10/13 09:42:37;;;;;;;4.28;1.48;;;;;;;;;;4967430;28;20066;-49
2021/10/13 09:45:03;;;;;;;10.00;1.63;;;;;;;;;;4952194;28;20039;-50
2021/10/13 09:47:30;;;;;;;5.40;1.60;;;;;;;;;;4952174;28;20054;-50
2021/10/13 09:49:56;;;;;;;4.50;1.40;;;;;;;;;;4952980;28;20106;-53
2021/10/13 09:52:27;;;;;;;9.90;2.05;;;;;;;;;;4952738;28;20046;-52
2021/10/13 09:55:08;;;;;;;3.85;1.55;;;;;;;;;;4954009;28;20049;-52
2021/10/13 09:57:44;;;;;;;11.15;1.73;;;;;;;;;;4952665;28;20066;-50
2021/10/13 10:00:11;;;;;;;3.95;1.35;;;;;;;;;;4952486;28;20047;-53
2021/10/13 10:02:45;;;;;;;5.22;1.50;;;;;;;;;;4952233;28;20043;-52
2021/10/13 10:05:12;;;;;;;3.83;1.20;;;;;;;;;;4950830;28;20050;-50
2021/10/13 10:07:44;;;;;;;3.83;1.38;;;;;;;;;;4951061;28;20054;-51
2021/10/13 10:10:11;;;;;;;5.25;1.52;;;;;;;;;;4951550;28;20031;-50
2021/10/13 10:12:55;;;;;;;3.90;1.45;;;;;;;;;;4951145;28;20047;-50
2021/10/13 10:15:20;;;;;;;;;;;;;;;;;;4953789;28;20109;-51
2021/10/13 10:17:46;;;;;;;7.15;1.92;;;;;;;;;;4952793;28;20008;-51
2021/10/13 10:20:31;;;;;;;6.32;1.65;;;;;;;;;;4953313;28;20042;-50
2021/10/13 10:22:57;;;;;;;5.32;1.77;;;;;;;;;;4967753;28;20043;-51
2021/10/13 10:25:33;;;;;;;18.48;1.60;;;;;;;;;;4960533;28;20105;-51
2021/10/13 10:27:59;;;;;;;3.35;1.35;;;;;;;;;;4953049;28;20054;-50
2021/10/13 10:30:25;;;;;;;10.13;1.25;;;;;;;;;;4950647;28;20043;-52
2021/10/13 10:32:57;;;;;;;6.05;1.58;;;;;;;;;;4952940;28;20038;-50
2021/10/13 10:35:24;;;;;;;5.78;1.70;;;;;;;;;;4953484;28;20045;-51
2021/10/13 10:37:51;;;;;;;6.63;1.48;;;;;;;;;;4951337;28;20098;-52
2021/10/13 10:40:26;;;;;;;5.47;1.45;;;;;;;;;;4951150;28;20030;-50
2021/10/13 10:42:52;;;;;;;5.95;1.40;;;;;;;;;;4970710;28;20097;-51
2021/10/13 10:45:19;;;;;;;3.45;1.17;;;;;;;;;;4961614;28;20047;-53
2021/10/13 10:47:49;;;;;;;8.18;1.15;;;;;;;;;;4951683;28;20047;-52
2021/10/13 10:50:16;;;;;;;4.10;1.10;;;;;;;;;;4952398;28;20046;-53
2021/10/13 10:53:02;;;;;;;4.28;1.33;;;;;;;;;;4971453;28;20042;-54
2021/10/13 10:55:38;;;;;;;3.47;1.15;;;;;;;;;;4961086;28;20810;-53
2021/10/13 10:58:24;;;;;;;2.90;1.30;;;;;;;;;;4952704;28;20134;-53
2021/10/13 11:01:02;;;;;;;7.18;1.58;;;;;;;;;;4969878;28;20945;-52
2021/10/13 11:03:36;;;;;;;4.72;1.88;;;;;;;;;;4968754;28;20084;-53
2021/10/13 11:06:19;;;;;;;3.70;1.38;;;;;;;;;;4952363;28;20121;-52
2021/10/13 11:09:11;;;;;;;4.25;1.40;;;;;;;;;;4969755;28;20100;-51
2021/10/13 11:11:41;;;;;;;4.13;1.65;;;;;;;;;;4965021;28;20050;-51
2021/10/13 11:14:09;;;;;;;2.75;1.23;;;;;;;;;;4952088;28;20500;-54
2021/10/13 11:16:37;;;;;;;4.68;1.58;;;;;;;;;;4950962;28;20424;-52
2021/10/13 11:19:06;;;;;;;5.28;1.60;;;;;;;;;;4951049;28;20055;-54
2021/10/13 11:21:32;;;;;;;5.95;1.73;;;;;;;;;;4949976;28;20057;-50
2021/10/13 11:23:58;;;;;;;2.45;1.02;;;;;;;;;;4950640;28;20518;-51
2021/10/13 11:26:27;;;;;;;8.73;1.45;;;;;;;;;;4949458;28;20527;-52
2021/10/13 11:28:53;;;;;;;5.43;1.30;;;;;;;;;;4951147;28;20735;-53
2021/10/13 11:31:19;;;;;;;9.48;1.60;;;;;;;;;;4949339;28;20039;-55
2021/10/13 11:33:45;;;;;;;4.20;1.30;;;;;;;;;;4951403;28;20122;-51
2021/10/13 11:36:11;;;;;;;4.15;1.40;;;;;;;;;;4961876;28;20047;-51
2021/10/13 11:38:39;;;;;;;5.97;1.80;;;;;;;;;;4957852;28;20070;-54
2021/10/13 11:41:10;;;;;;;12.10;1.35;;;;;;;;;;4948584;28;20058;-54
2021/10/13 11:43:37;;;;;;;3.08;1.58;;;;;;;;;;4950349;28;20057;-52
2021/10/13 11:46:03;;;;;;;2.70;1.25;;;;;;;;;;4951466;28;20053;-51
2021/10/13 11:48:34;;;;;;;5.22;1.27;;;;;;;;;;4950341;28;20067;-54
2021/10/13 11:51:02;;;;;;;3.53;1.30;;;;;;;;;;4950613;28;20030;-51
2021/10/13 11:53:28;;;;;;;15.93;2.03;;;;;;;;;;4949692;28;20637;-54
2021/10/13 11:55:55;;;;;;;3.88;1.40;;;;;;;;;;4952442;28;20164;-52
2021/10/13 11:58:28;;;;;;;2.63;1.00;;;;;;;;;;4949090;28;20080;-54
2021/10/13 12:00:54;;;;;;;;;;;;;;;;;;4949762;28;20106;-51
2021/10/13 12:03:28;;;;;;;2.25;0.82;;;;;;;;;;4951072;28;19933;-50
2021/10/13 12:05:57;;;;;;;2.95;1.00;;;;;;;;;;4965789;28;20047;-51
2021/10/13 12:08:30;;;;;;;4.22;1.00;;;;;;;;;;4953914;28;20089;-50
2021/10/13 12:11:03;;;;;;;2.45;1.00;;;;;;;;;;4954712;28;20046;-52
2021/10/13 12:13:30;;;;;;;2.60;1.00;;;;;;;;;;4954705;28;20072;-52
2021/10/13 12:16:01;;;;;;;3.03;0.95;;;;;;;;;;4955354;28;20546;-53
2021/10/13 12:18:31;;;;;;;4.13;1.40;;;;;;;;;;4955154;28;20047;-52
2021/10/13 12:21:03;;;;;;;4.72;1.20;;;;;;;;;;4954578;28;20146;-50
2021/10/13 12:23:32;;;;;;;6.40;1.48;;;;;;;;;;4954507;28;20049;-50
2021/10/13 12:25:58;;;;;;;2.55;0.80;;;;;;;;;;4953915;28;20575;-52
2021/10/13 12:28:26;;;;;;;5.35;0.80;;;;;;;;;;4954504;28;20054;-51
2021/10/13 12:30:59;;;;;;;3.38;0.95;;;;;;;;;;4953942;28;20124;-54
2021/10/13 12:33:25;;;;;;;;;;;;;;;;;;4964102;28;20065;-52
2021/10/13 12:35:50;;;;;;;11.68;1.05;;;;;;;;;;4954134;28;20037;-51
2021/10/13 12:38:18;;;;;;;3.35;1.25;;;;;;;;;;4955270;28;20056;-54
2021/10/13 12:41:01;;;;;;;6.93;1.27;;;;;;;;;;4960312;28;20043;-51
2021/10/13 12:43:27;;;;;;;4.82;1.10;;;;;;;;;;4953425;28;20789;-54
2021/10/13 12:45:53;;;;;;;4.97;1.00;;;;;;;;;;4953896;28;20113;-52
2021/10/13 12:48:19;;;;;;;3.35;1.00;;;;;;;;;;4952056;28;20122;-50
2021/10/13 12:51:04;;;;;;;7.07;1.38;;;;;;;;;;4953469;28;20058;-50
2021/10/13 12:53:30;;;;;;;6.57;1.45;;;;;;;;;;4954236;28;20069;-51
2021/10/13 12:55:56;;;;;;;1.88;0.85;;;;;;;;;;4956399;28;20677;-50
2021/10/13 12:58:28;;;;;;;3.25;0.95;;;;;;;;;;4952335;28;20047;-51
2021/10/13 13:00:54;;;;;;;3.97;1.58;;;;;;;;;;4951963;28;20054;-50
2021/10/13 13:03:22;;;;;;;3.72;1.27;;;;;;;;;;4953105;28;20047;-50
2021/10/13 13:05:49;;;;;;;3.83;0.95;;;;;;;;;;4952903;28;20110;-50
2021/10/13 13:08:15;;;;;;;4.63;1.20;;;;;;;;;;4952287;28;20050;-49
2021/10/13 13:10:40;;;;;;;5.38;1.40;;;;;;;;;;4952269;28;20605;-50
2021/10/13 13:13:06;;;;;;;2.58;0.85;;;;;;;;;;4952881;28;20035;-52
2021/10/13 13:15:32;;;;;;;3.55;1.08;;;;;;;;;;4953858;28;20047;-50
2021/10/13 13:17:58;;;;;;;2.10;0.88;;;;;;;;;;4954964;28;20665;-50
2021/10/13 13:20:24;;;;;;;2.85;1.13;;;;;;;;;;4953136;28;20054;-50
2021/10/13 13:22:50;;;;;;;2.53;0.88;;;;;;;;;;4953557;28;20051;-53
2021/10/13 13:25:16;;;;;;;3.95;1.00;;;;;;;;;;4954556;28;20054;-51
2021/10/13 13:27:41;;;;;;;2.63;0.93;;;;;;;;;;4985808;28;20172;-53
2021/10/13 13:30:07;;;;;;;2.65;0.80;;;;;;;;;;4971257;28;20043;-49
2021/10/13 13:32:33;;;;;;;1.58;0.70;;;;;;;;;;4987126;28;20043;-52
2021/10/13 13:34:59;;;;;;;2.55;0.90;;;;;;;;;;4974661;28;20035;-50
2021/10/13 13:37:25;;;;;;;1.65;0.60;;;;;;;;;;4972323;28;20114;-49
2021/10/13 13:39:51;;;;;;;1.85;0.80;;;;;;;;;;4966805;28;20039;-49
2021/10/13 13:42:17;;;;;;;2.08;0.70;;;;;;;;;;4953508;28;20043;-52
2021/10/13 13:44:43;;;;;;;2.88;0.75;;;;;;;;;;4956995;28;20035;-50
2021/10/13 13:47:09;;;;;;;2.60;1.05;;;;;;;;;;4958692;28;20976;-51
2021/10/13 13:49:35;;;;;;;3.53;0.93;;;;;;;;;;4952996;28;20039;-51
2021/10/13 13:52:01;;;;;;;9.40;1.25;;;;;;;;;;4953367;28;20059;-54
2021/10/13 13:54:26;;;;;;;4.38;0.98;;;;;;;;;;4953691;28;20039;-50
2021/10/13 13:56:52;;;;;;;3.42;0.90;;;;;;;;;;4962441;28;20444;-51
2021/10/13 13:59:19;;;;;;;3.40;0.70;;;;;;;;;;4953262;28;20039;-52
2021/10/13 14:01:44;;;;;;;3.05;0.98;;;;;;;;;;4952689;28;20040;-50
2021/10/13 14:04:10;;;;;;;2.38;0.90;;;;;;;;;;4953335;28;20043;-49
2021/10/13 14:06:36;;;;;;;2.40;0.82;;;;;;;;;;4955705;28;20047;-50
2021/10/13 14:09:03;;;;;;;2.33;0.70;;;;;;;;;;4953978;28;20409;-50
2021/10/13 14:11:28;;;;;;;2.30;1.13;;;;;;;;;;4953519;28;20050;-50
2021/10/13 14:13:54;;;;;;;6.60;0.90;;;;;;;;;;4952985;28;20043;-50
2021/10/13 14:16:20;;;;;;;1.13;0.50;;;;;;;;;;4951665;28;20051;-50
2021/10/13 14:18:46;;;;;;;0.85;0.40;;;;;;;;;;4952990;28;20073;-50
2021/10/13 14:21:12;;;;;;;1.42;0.70;;;;;;;;;;4952460;28;20094;-49
2021/10/13 14:23:38;;;;;;;1.08;0.50;;;;;;;;;;4951197;28;20668;-49
2021/10/13 14:26:04;;;;;;;2.13;0.80;;;;;;;;;;4950754;28;20629;-50
2021/10/13 14:28:30;;;;;;;0.98;0.52;;;;;;;;;;4951238;28;20051;-51
2021/10/13 14:30:55;;;;;;;1.48;0.57;;;;;;;;;;4949888;28;20114;-49
2021/10/13 14:33:21;;;;;;;1.35;0.68;;;;;;;;;;4966012;28;20047;-52
2021/10/13 14:35:47;;;;;;;2.55;0.73;;;;;;;;;;4951432;28;20059;-53
2021/10/13 14:38:13;;;;;;;2.03;0.60;;;;;;;;;;4951951;28;20614;-53
2021/10/13 14:40:39;;;;;;;2.78;0.80;;;;;;;;;;4951298;28;20046;-51
2021/10/13 14:43:05;;;;;;;2.08;0.63;;;;;;;;;;4951233;28;20031;-50
2021/10/13 14:45:31;;;;;;;3.75;0.90;;;;;;;;;;4950297;28;20105;-52
2021/10/13 14:47:57;;;;;;;1.83;0.63;;;;;;;;;;4950964;28;20768;-50